Time;durP1;ratioP1;P1;durP2;ratioP2;P2;SDS_P1;SDS_P2;PMS_P1;PMS_P2;Temp;Humidity;BMP_temperature;BMP_pressure;BME280_temperature;BME280_humidity;BME280_pressure;Samples;Min_cycle;Max_cycle;Signal;HPM_P1;HPM_P2
2022/06/27 00:00:46;;;;;;;1.30;0.70;;;;;;;19.98;54.86;99682.38;5035613;28;20304;-60
2022/06/27 00:03:17;;;;;;;1.10;0.80;;;;;;;20.02;55.37;99678.59;5036453;28;20292;-61
2022/06/27 00:05:48;;;;;;;0.63;0.63;;;;;;;19.89;56.57;99677.66;5017662;28;20515;-61
2022/06/27 00:08:18;;;;;;;1.87;0.83;;;;;;;20.18;56.60;99673.97;5036538;28;20359;-60
2022/06/27 00:10:49;;;;;;;2.00;0.80;;;;;;;20.20;54.59;99672.06;5033509;28;20292;-59
2022/06/27 00:13:20;;;;;;;9.70;1.03;;;;;;;20.28;55.49;99678.69;5036668;28;20746;-59
2022/06/27 00:15:54;;;;;;;4.17;1.33;;;;;;;20.28;54.88;99670.72;5037196;28;20288;-60
2022/06/27 00:18:31;;;;;;;0.93;0.88;;;;;;;20.52;54.87;99666.44;5037240;28;20514;-60
2022/06/27 00:21:02;;;;;;;0.83;0.70;;;;;;;20.54;54.49;99672.47;5031515;28;20052;-60
2022/06/27 00:23:33;;;;;;;1.00;0.80;;;;;;;20.76;53.99;99663.94;5020893;28;20277;-60
2022/06/27 00:26:04;;;;;;;2.13;0.80;;;;;;;20.67;54.73;99665.44;5024069;28;20324;-59
2022/06/27 00:28:35;;;;;;;2.40;0.90;;;;;;;20.70;55.34;99674.16;5034222;28;20304;-61
2022/06/27 00:31:07;;;;;;;3.33;1.10;;;;;;;20.81;54.75;99661.81;5040803;28;20371;-58
2022/06/27 00:33:38;;;;;;;2.97;1.10;;;;;;;20.97;54.91;99672.25;5041120;28;20296;-58
2022/06/27 00:36:08;;;;;;;3.37;0.80;;;;;;;21.00;56.27;99666.72;5039648;28;20284;-57
2022/06/27 00:38:40;;;;;;;9.33;1.10;;;;;;;20.98;54.58;99667.78;5039747;28;20291;-58
2022/06/27 00:41:11;;;;;;;2.20;0.80;;;;;;;20.78;53.61;99655.88;5037737;28;20307;-59
2022/06/27 00:43:45;;;;;;;1.47;0.93;;;;;;;20.87;54.69;99647.31;5039000;28;20303;-58
2022/06/27 00:46:17;;;;;;;1.40;0.90;;;;;;;20.68;54.73;99614.03;5032906;28;20316;-57
2022/06/27 00:48:48;;;;;;;2.03;0.80;;;;;;;21.20;54.42;99654.72;5035378;28;20292;-57
2022/06/27 00:51:18;;;;;;;2.07;0.90;;;;;;;21.05;53.92;99646.00;5038885;28;20296;-57
2022/06/27 00:53:49;;;;;;;1.53;0.73;;;;;;;20.83;54.18;99637.84;5039537;28;20307;-57
2022/06/27 00:56:20;;;;;;;2.00;0.90;;;;;;;20.95;55.68;99631.69;5039583;28;20276;-58
2022/06/27 00:58:50;;;;;;;2.70;0.70;;;;;;;20.97;55.93;99635.09;5039517;28;20291;-58
2022/06/27 01:01:22;;;;;;;2.67;0.53;;;;;;;20.93;54.81;99628.28;5039462;28;20306;-57
2022/06/27 01:03:53;;;;;;;3.43;0.60;;;;;;;20.87;55.71;99620.75;5039388;28;20330;-57
2022/06/27 01:06:24;;;;;;;5.77;0.70;;;;;;;21.04;56.57;99619.56;5039556;28;20303;-57
2022/06/27 01:08:54;;;;;;;5.57;0.80;;;;;;;21.13;55.61;99613.59;5039127;28;20456;-58
2022/06/27 01:11:25;;;;;;;1.87;1.00;;;;;;;21.40;55.31;99621.47;5039159;28;20304;-58
2022/06/27 01:13:56;;;;;;;13.17;1.10;;;;;;;21.74;54.79;99619.00;5039116;28;20593;-58
2022/06/27 01:16:28;;;;;;;2.00;0.70;;;;;;;21.89;53.56;99622.34;5039143;28;20292;-59
2022/06/27 01:18:59;;;;;;;1.07;0.97;;;;;;;21.86;54.15;99623.41;5039250;28;20339;-58
2022/06/27 01:21:37;;;;;;;1.17;0.80;;;;;;;21.59;52.23;99620.13;5035304;28;20360;-59
2022/06/27 01:24:09;;;;;;;0.67;0.63;;;;;;;21.20;52.40;99592.78;5019161;28;20292;-58
2022/06/27 01:26:42;;;;;;;1.37;0.70;;;;;;;21.29;53.19;99618.66;5018971;28;20348;-58
2022/06/27 01:29:14;;;;;;;1.43;1.13;;;;;;;21.54;55.05;99607.16;5019037;28;20343;-57
2022/06/27 01:31:44;;;;;;;7.50;1.03;;;;;;;22.16;55.62;99624.78;5018935;28;20602;-58
2022/06/27 01:34:17;;;;;;;2.57;0.70;;;;;;;22.25;52.48;99628.59;5019126;28;20602;-58
2022/06/27 01:36:49;;;;;;;5.47;0.80;;;;;;;22.23;52.62;99620.72;5024790;28;20304;-58
2022/06/27 01:39:22;;;;;;;2.77;0.77;;;;;;;22.11;51.83;99616.28;5038528;28;20288;-58
2022/06/27 01:41:54;;;;;;;1.53;0.70;;;;;;;22.17;51.92;99621.16;5038584;28;20673;-59
2022/06/27 01:44:28;;;;;;;0.60;0.60;;;;;;;22.45;51.64;99635.94;5038405;28;20284;-58
2022/06/27 01:47:04;;;;;;;1.10;0.80;;;;;;;22.94;52.21;99621.53;5038561;28;20296;-58
2022/06/27 01:49:36;;;;;;;2.47;0.80;;;;;;;23.09;50.45;99618.63;5038623;28;20322;-58
2022/06/27 01:52:09;;;;;;;4.80;1.00;;;;;;;23.13;50.12;99618.28;5036480;28;20294;-58
2022/06/27 01:54:41;;;;;;;1.57;0.70;;;;;;;22.98;52.37;99622.16;5038496;28;20283;-58
2022/06/27 01:57:12;;;;;;;6.73;1.00;;;;;;;22.57;52.12;99624.34;5038354;28;20626;-58
2022/06/27 01:59:43;;;;;;;2.23;1.00;;;;;;;22.27;53.80;99621.38;5038491;28;20057;-58
2022/06/27 02:02:13;;;;;;;1.13;0.73;;;;;;;22.09;54.42;99607.56;5038155;28;20064;-58
2022/06/27 02:04:45;;;;;;;4.93;0.80;;;;;;;21.74;54.23;99619.88;5032131;28;20069;-59
2022/06/27 02:07:19;;;;;;;5.67;1.10;;;;;;;21.50;56.80;99606.53;5037103;28;20292;-58
2022/06/27 02:09:51;;;;;;;5.63;0.90;;;;;;;21.41;57.22;99623.13;5037887;28;20594;-58
2022/06/27 02:12:23;;;;;;;7.07;1.20;;;;;;;21.22;56.34;99625.41;5038022;28;20352;-58
2022/06/27 02:14:55;;;;;;;5.20;1.20;;;;;;;21.17;57.67;99631.03;5037816;28;20326;-58
2022/06/27 02:17:25;;;;;;;9.37;1.30;;;;;;;21.06;57.70;99621.13;5037783;28;20296;-57
2022/06/27 02:19:56;;;;;;;2.40;1.00;;;;;;;21.02;57.26;99632.94;5035881;28;20398;-59
2022/06/27 02:22:27;;;;;;;2.47;1.03;;;;;;;21.24;57.41;99616.34;5032482;28;20615;-58
2022/06/27 02:24:59;;;;;;;5.07;1.47;;;;;;;21.41;58.59;99623.13;5030016;28;20300;-60
2022/06/27 02:27:33;;;;;;;6.13;2.07;;;;;;;21.48;57.02;99635.03;5037269;28;20347;-58
2022/06/27 02:30:05;;;;;;;3.27;1.77;;;;;;;21.40;56.88;99637.41;5037637;28;20277;-58
2022/06/27 02:32:36;;;;;;;9.90;2.13;;;;;;;21.14;58.68;99630.38;5037216;28;20294;-58
2022/06/27 02:35:08;;;;;;;5.87;2.40;;;;;;;21.13;59.22;99632.19;5037745;28;20277;-58
2022/06/27 02:37:42;;;;;;;6.50;2.33;;;;;;;21.02;59.38;99619.69;5037810;28;20625;-58
2022/06/27 02:40:17;;;;;;;6.80;2.50;;;;;;;20.83;59.06;99613.94;5037548;28;20518;-58
2022/06/27 02:42:49;;;;;;;8.17;2.03;;;;;;;20.78;59.99;99613.41;5018577;28;20293;-58
2022/06/27 02:45:20;;;;;;;9.50;2.17;;;;;;;20.86;59.69;99621.69;5017621;28;20309;-58
2022/06/27 02:47:54;;;;;;;15.00;2.53;;;;;;;20.60;59.88;99592.47;5017694;28;20670;-58
2022/06/27 02:50:28;;;;;;;4.63;1.97;;;;;;;20.54;59.74;99622.03;5017626;28;20284;-58
2022/06/27 02:53:01;;;;;;;7.43;2.63;;;;;;;20.36;61.82;99623.31;5017470;28;20460;-57
2022/06/27 02:55:39;;;;;;;4.77;2.00;;;;;;;20.22;61.94;99626.91;5035411;28;20320;-57
2022/06/27 02:58:12;;;;;;;6.73;2.30;;;;;;;19.40;61.21;99549.97;5033185;28;20380;-57
2022/06/27 03:00:44;;;;;;;8.07;2.00;;;;;;;19.66;62.16;99634.06;5035104;28;20300;-57
2022/06/27 03:03:17;;;;;;;4.93;1.87;;;;;;;18.94;62.64;99547.56;5036668;28;20290;-57
2022/06/27 03:05:58;;;;;;;9.63;2.47;;;;;;;19.43;63.70;99632.88;5036754;28;20469;-58
2022/06/27 03:08:38;;;;;;;14.57;1.83;;;;;;;19.43;64.48;99644.31;5036846;28;20276;-58
2022/06/27 03:11:12;;;;;;;2.90;2.10;;;;;;;19.36;63.50;99629.75;5037270;28;20343;-57
2022/06/27 03:13:43;;;;;;;3.87;2.67;;;;;;;19.25;64.08;99635.72;5036945;28;20294;-57
2022/06/27 03:16:15;;;;;;;7.00;1.90;;;;;;;18.81;64.75;99583.69;5036931;28;20323;-57
2022/06/27 03:18:47;;;;;;;5.27;2.37;;;;;;;18.98;64.52;99603.00;5036746;28;20833;-57
2022/06/27 03:21:20;;;;;;;7.97;2.40;;;;;;;19.10;64.00;99637.53;5036835;28;20336;-57
2022/06/27 03:23:51;;;;;;;6.13;2.30;;;;;;;18.94;64.67;99634.94;5036725;28;20285;-57
2022/06/27 03:26:23;;;;;;;5.40;2.20;;;;;;;18.97;65.82;99628.63;5036831;28;20331;-57
2022/06/27 03:28:53;;;;;;;7.97;1.80;;;;;;;18.85;64.93;99638.16;5036833;28;20280;-58
2022/06/27 03:31:24;;;;;;;6.93;2.30;;;;;;;18.65;65.28;99631.41;5036671;28;20288;-57
2022/06/27 03:33:54;;;;;;;8.00;2.40;;;;;;;18.47;65.52;99643.94;5036798;28;20483;-57
2022/06/27 03:36:25;;;;;;;13.83;2.40;;;;;;;18.17;66.43;99598.09;5036665;28;20286;-58
2022/06/27 03:38:56;;;;;;;7.53;2.13;;;;;;;18.38;66.44;99633.88;5036525;28;20318;-58
2022/06/27 03:41:28;;;;;;;4.63;2.20;;;;;;;18.32;66.98;99637.75;5036635;28;20694;-58
2022/06/27 03:43:59;;;;;;;14.43;2.40;;;;;;;18.31;67.82;99638.66;5036503;28;20299;-58
2022/06/27 03:46:29;;;;;;;6.20;2.43;;;;;;;18.31;67.51;99638.66;5036783;28;20287;-58
2022/06/27 03:51:47;;;;;;;8.83;2.00;;;;;;;18.21;68.34;99641.94;5036579;28;20315;-58
2022/06/27 03:54:18;;;;;;;3.07;1.83;;;;;;;18.18;67.54;99647.41;5036392;28;20342;-57
2022/06/27 03:56:50;;;;;;;4.23;1.90;;;;;;;18.20;67.71;99640.25;5036367;28;20292;-58
2022/06/27 03:59:21;;;;;;;10.37;2.30;;;;;;;17.74;67.98;99563.53;5037413;28;20316;-57
2022/06/27 04:01:52;;;;;;;7.13;2.70;;;;;;;18.16;67.35;99639.56;5040321;28;20336;-58
2022/06/27 04:04:22;;;;;;;8.33;2.17;;;;;;;18.19;67.98;99644.66;5040441;28;20299;-58
2022/06/27 04:06:53;;;;;;;12.67;2.60;;;;;;;18.29;68.18;99650.28;5040366;28;20440;-58
2022/06/27 04:09:24;;;;;;;10.40;2.53;;;;;;;18.33;66.90;99641.22;5040352;28;20355;-58
2022/06/27 04:11:56;;;;;;;16.73;2.67;;;;;;;18.32;66.63;99644.81;5040326;28;20276;-58
2022/06/27 04:14:27;;;;;;;16.47;3.27;;;;;;;18.25;66.67;99640.84;5040149;28;20280;-57
2022/06/27 04:16:57;;;;;;;12.20;2.67;;;;;;;18.34;66.63;99648.22;5040255;28;20347;-57
2022/06/27 04:19:28;;;;;;;7.10;2.80;;;;;;;18.39;66.44;99654.09;5039842;28;20653;-57
2022/06/27 04:21:58;;;;;;;6.03;2.60;;;;;;;18.45;66.98;99655.53;5040005;28;20323;-57
2022/06/27 04:24:29;;;;;;;8.50;2.67;;;;;;;18.43;66.63;99658.25;5039940;28;20288;-58
2022/06/27 04:27:01;;;;;;;6.37;2.33;;;;;;;18.37;67.67;99661.28;5039891;28;20286;-57
2022/06/27 04:29:33;;;;;;;8.13;2.20;;;;;;;18.35;67.63;99665.81;5039981;28;20292;-57
2022/06/27 04:32:04;;;;;;;16.37;2.60;;;;;;;18.32;67.08;99658.91;5039725;28;20298;-58
2022/06/27 04:34:34;;;;;;;12.67;2.10;;;;;;;18.34;66.81;99664.09;5039755;28;20292;-57
2022/06/27 04:37:05;;;;;;;20.13;2.93;;;;;;;18.29;66.62;99655.56;5039840;28;20288;-58
2022/06/27 04:39:36;;;;;;;13.87;2.27;;;;;;;18.24;65.85;99684.06;5039581;28;20354;-57
2022/06/27 04:42:10;;;;;;;11.90;1.83;;;;;;;18.06;65.94;99676.25;5039745;28;20292;-58
2022/06/27 04:44:41;;;;;;;7.80;2.10;;;;;;;17.97;66.41;99671.50;5039586;28;20319;-58
2022/06/27 04:47:13;;;;;;;9.13;1.83;;;;;;;17.87;66.04;99686.13;5039731;28;20283;-58
2022/06/27 04:49:44;;;;;;;12.70;2.00;;;;;;;17.81;66.79;99671.47;5039863;28;20307;-58
2022/06/27 04:52:15;;;;;;;6.63;2.30;;;;;;;17.79;67.43;99677.75;5039688;28;20483;-58
2022/06/27 04:54:46;;;;;;;6.27;1.90;;;;;;;17.72;66.57;99676.38;5039698;28;20282;-58
2022/06/27 04:57:18;;;;;;;13.27;1.90;;;;;;;17.62;67.38;99676.91;5039544;28;20284;-58
2022/06/27 04:59:49;;;;;;;8.17;2.03;;;;;;;17.52;67.76;99675.69;5039238;28;20319;-56
2022/06/27 05:02:20;;;;;;;4.40;2.00;;;;;;;17.48;68.27;99684.72;5039398;28;20307;-57
2022/06/27 05:04:51;;;;;;;4.47;2.17;;;;;;;17.46;68.32;99681.31;5039128;28;20304;-57
2022/06/27 05:07:22;;;;;;;5.93;2.30;;;;;;;17.41;68.70;99678.06;5039330;28;20347;-57
2022/06/27 05:09:53;;;;;;;13.13;2.20;;;;;;;17.35;69.29;99678.41;5039103;28;20284;-57
2022/06/27 05:12:25;;;;;;;9.63;2.33;;;;;;;17.41;69.28;99683.34;5037314;28;20530;-57
2022/06/27 05:14:57;;;;;;;7.30;2.60;;;;;;;17.49;69.62;99677.66;5030551;28;20308;-57
2022/06/27 05:17:27;;;;;;;7.37;2.67;;;;;;;17.28;69.17;99650.63;5038961;28;20288;-57
2022/06/27 05:19:58;;;;;;;6.13;2.30;;;;;;;17.51;69.54;99679.28;5039096;28;20307;-57
2022/06/27 05:22:29;;;;;;;10.20;2.20;;;;;;;17.66;69.70;99678.44;5038889;28;20287;-57
2022/06/27 05:24:59;;;;;;;15.63;2.77;;;;;;;17.81;70.00;99681.22;5039062;28;20352;-56
2022/06/27 05:27:34;;;;;;;8.50;2.37;;;;;;;18.03;68.96;99671.13;5038117;28;20279;-57
2022/06/27 05:30:06;;;;;;;18.80;3.13;;;;;;;18.24;70.23;99673.50;5043440;28;20318;-57
2022/06/27 05:32:37;;;;;;;13.50;2.90;;;;;;;18.36;69.69;99675.44;5044881;28;20288;-58
2022/06/27 05:35:08;;;;;;;5.17;2.00;;;;;;;18.32;67.16;99671.25;5044766;28;20280;-58
2022/06/27 05:37:39;;;;;;;12.13;2.37;;;;;;;17.99;67.27;99611.44;5044464;28;20837;-58
2022/06/27 05:40:11;;;;;;;5.37;2.13;;;;;;;18.37;67.04;99669.22;5044284;28;20351;-58
2022/06/27 05:42:43;;;;;;;4.40;2.37;;;;;;;18.41;66.74;99660.16;5044334;28;20283;-58
2022/06/27 05:45:14;;;;;;;9.27;2.27;;;;;;;18.56;66.49;99673.41;5044116;28;20290;-58
2022/06/27 05:47:45;;;;;;;8.33;2.97;;;;;;;18.54;65.04;99666.41;5044194;28;20351;-58
2022/06/27 05:50:16;;;;;;;9.43;2.00;;;;;;;18.48;64.28;99671.22;5044446;28;20296;-58
2022/06/27 05:52:47;;;;;;;6.03;1.80;;;;;;;18.41;64.15;99670.72;5044357;28;20584;-58
2022/06/27 05:55:18;;;;;;;6.13;2.40;;;;;;;18.39;64.48;99671.75;5043192;28;20300;-58
2022/06/27 05:57:52;;;;;;;3.07;1.63;;;;;;;18.39;63.52;99664.66;5044058;28;20276;-57
2022/06/27 06:00:23;;;;;;;6.33;1.90;;;;;;;18.59;63.34;99667.94;5044221;28;20311;-58
2022/06/27 06:02:55;;;;;;;7.13;2.13;;;;;;;18.47;62.91;99643.94;5044044;28;20291;-57
2022/06/27 06:05:26;;;;;;;10.57;2.17;;;;;;;18.79;62.82;99680.88;5044092;28;20319;-57
2022/06/27 06:08:02;;;;;;;7.83;2.20;;;;;;;18.78;62.13;99683.63;5044239;28;20341;-58
2022/06/27 06:10:33;;;;;;;13.77;2.50;;;;;;;18.92;62.28;99675.69;5043384;28;20657;-58
2022/06/27 06:13:06;;;;;;;3.27;1.80;;;;;;;19.04;61.61;99674.09;5044316;28;20415;-57
2022/06/27 06:15:38;;;;;;;3.40;2.07;;;;;;;19.16;61.37;99678.66;5043972;28;20284;-58
2022/06/27 06:18:10;;;;;;;8.03;2.00;;;;;;;19.20;61.35;99666.09;5041642;28;20307;-57
2022/06/27 06:20:40;;;;;;;2.93;2.10;;;;;;;19.46;61.97;99673.25;5042560;28;20300;-57
2022/06/27 06:23:11;;;;;;;5.13;1.97;;;;;;;19.45;60.67;99678.66;5043115;28;20275;-58
2022/06/27 06:25:43;;;;;;;3.47;2.40;;;;;;;19.48;60.33;99667.88;5043920;28;20291;-57
2022/06/27 06:28:15;;;;;;;8.67;2.00;;;;;;;19.71;61.56;99669.94;5043598;28;20342;-57
2022/06/27 06:30:46;;;;;;;3.47;2.13;;;;;;;19.77;59.57;99674.88;5044258;28;20288;-58
2022/06/27 06:33:16;;;;;;;6.20;2.10;;;;;;;19.79;60.04;99672.09;5043760;28;20307;-57
2022/06/27 06:35:47;;;;;;;4.90;1.83;;;;;;;19.74;59.83;99668.88;5043598;28;20289;-57
2022/06/27 06:38:18;;;;;;;5.77;2.27;;;;;;;19.60;60.23;99672.41;5043887;28;20342;-56
2022/06/27 06:40:49;;;;;;;5.47;1.73;;;;;;;19.48;60.02;99675.81;5043878;28;20314;-58
2022/06/27 06:43:21;;;;;;;5.67;2.43;;;;;;;19.53;61.85;99666.63;5043647;28;20342;-57
2022/06/27 06:45:52;;;;;;;2.97;1.70;;;;;;;19.53;60.16;99665.78;5043281;28;20296;-57
2022/06/27 06:48:23;;;;;;;4.37;2.00;;;;;;;19.49;61.35;99669.56;5043150;28;20440;-57
2022/06/27 06:50:54;;;;;;;4.10;1.80;;;;;;;19.51;61.09;99665.03;5043172;28;20277;-58
2022/06/27 06:53:25;;;;;;;5.07;2.07;;;;;;;19.46;60.60;99665.31;5043262;28;20291;-58
2022/06/27 06:55:57;;;;;;;4.90;1.93;;;;;;;19.52;61.10;99664.06;5042130;28;20295;-58
2022/06/27 06:58:29;;;;;;;4.37;2.10;;;;;;;19.57;60.80;99667.31;5043051;28;20333;-57
2022/06/27 07:00:59;;;;;;;3.07;2.10;;;;;;;19.66;60.94;99656.09;5043037;28;20700;-56
2022/06/27 07:03:31;;;;;;;3.23;2.03;;;;;;;19.88;59.90;99660.06;5042937;28;20288;-57
2022/06/27 07:06:03;;;;;;;5.70;2.00;;;;;;;19.86;59.53;99656.66;5043058;28;20307;-57
2022/06/27 07:08:33;;;;;;;5.90;2.10;;;;;;;19.95;60.60;99666.69;5042458;28;20665;-57
2022/06/27 07:11:05;;;;;;;6.90;2.00;;;;;;;20.17;59.90;99672.28;5041559;28;20651;-57
2022/06/27 07:13:37;;;;;;;6.90;2.77;;;;;;;20.11;59.96;99667.38;5042636;28;20276;-57
2022/06/27 07:16:08;;;;;;;4.93;2.10;;;;;;;20.02;59.97;99668.00;5043277;28;20310;-57
2022/06/27 07:18:39;;;;;;;6.77;2.53;;;;;;;20.01;59.64;99671.56;5042707;28;20334;-57
2022/06/27 07:21:11;;;;;;;11.37;7.17;;;;;;;19.89;60.06;99673.22;5041985;28;20311;-58
2022/06/27 07:23:42;;;;;;;4.00;2.00;;;;;;;19.66;59.91;99661.41;5042793;28;20288;-58
2022/06/27 07:26:12;;;;;;;4.63;2.10;;;;;;;19.49;60.81;99667.75;5042305;28;20617;-57
2022/06/27 07:28:46;;;;;;;4.90;2.23;;;;;;;19.36;60.66;99667.69;5042765;28;20315;-57
2022/06/27 07:31:17;;;;;;;6.37;1.90;;;;;;;19.17;61.97;99651.25;5041560;28;20299;-58
2022/06/27 07:33:51;;;;;;;4.40;2.40;;;;;;;19.30;61.15;99670.72;5042174;28;20292;-58
2022/06/27 07:36:25;;;;;;;4.10;2.00;;;;;;;19.16;61.32;99654.81;5042466;28;20328;-58
2022/06/27 07:38:58;;;;;;;4.87;2.73;;;;;;;19.22;61.69;99670.34;5041466;28;20522;-58
2022/06/27 07:41:32;;;;;;;11.40;3.53;;;;;;;19.24;62.73;99665.78;5041611;28;20315;-58
2022/06/27 07:44:04;;;;;;;19.83;2.63;;;;;;;19.22;62.55;99666.81;5042611;28;20307;-58
2022/06/27 07:46:35;;;;;;;4.60;2.13;;;;;;;19.10;62.53;99660.50;5042741;28;20615;-58
2022/06/27 07:49:06;;;;;;;3.30;2.00;;;;;;;19.01;62.69;99659.25;5041717;28;20298;-58
2022/06/27 07:51:37;;;;;;;6.60;2.80;;;;;;;19.05;62.45;99658.13;5042100;28;20642;-58
2022/06/27 07:54:10;;;;;;;3.07;2.30;;;;;;;19.00;62.72;99660.22;5041664;28;20598;-57
2022/06/27 07:56:41;;;;;;;9.33;2.40;;;;;;;19.01;63.04;99663.72;5042463;28;20297;-58
2022/06/27 07:59:32;;;;;;;8.37;2.60;;;;;;;19.20;63.19;99664.28;5042221;28;20280;-57
2022/06/27 08:02:03;;;;;;;10.17;3.20;;;;;;;19.21;62.41;99642.13;5041231;28;20307;-57
2022/06/27 08:04:36;;;;;;;6.90;2.57;;;;;;;19.31;61.78;99664.47;5041943;28;20717;-57
2022/06/27 08:07:07;;;;;;;3.50;2.10;;;;;;;19.14;61.53;99664.66;5041168;28;20335;-57
2022/06/27 08:09:39;;;;;;;5.90;2.57;;;;;;;19.11;61.99;99670.13;5041145;28;20336;-57
2022/06/27 08:12:10;;;;;;;7.67;2.40;;;;;;;19.06;61.91;99656.34;5041741;28;20886;-57
2022/06/27 08:14:42;;;;;;;8.47;1.90;;;;;;;18.98;61.34;99674.50;5040637;28;20356;-57
2022/06/27 08:17:14;;;;;;;7.67;2.03;;;;;;;18.80;61.81;99674.66;5041341;28;20300;-58
2022/06/27 08:19:45;;;;;;;10.00;2.30;;;;;;;18.61;62.63;99676.66;5042256;28;20961;-57
2022/06/27 08:22:15;;;;;;;7.70;2.10;;;;;;;18.60;63.36;99680.25;5039709;28;20381;-58
2022/06/27 08:24:46;;;;;;;7.43;2.60;;;;;;;18.53;63.67;99680.59;5042231;28;20284;-57
2022/06/27 08:27:16;;;;;;;7.63;2.43;;;;;;;18.44;63.82;99677.63;5042223;28;20295;-58
2022/06/27 08:29:49;;;;;;;5.63;2.30;;;;;;;18.39;63.07;99677.88;5042151;28;20284;-59
2022/06/27 08:32:19;;;;;;;6.50;2.20;;;;;;;18.34;63.61;99677.31;5042832;28;20541;-58
2022/06/27 08:34:54;;;;;;;8.13;2.50;;;;;;;18.21;64.47;99690.38;5041676;28;20311;-58
2022/06/27 08:37:26;;;;;;;6.97;2.20;;;;;;;18.13;64.49;99687.34;5040084;28;20285;-58
2022/06/27 08:39:58;;;;;;;11.27;2.30;;;;;;;18.08;65.06;99684.94;5039542;28;20303;-58
2022/06/27 08:42:29;;;;;;;15.73;2.33;;;;;;;18.14;65.45;99698.75;5040691;28;20316;-58
2022/06/27 08:45:03;;;;;;;6.17;2.23;;;;;;;18.16;65.18;99687.16;5042380;28;20291;-58
2022/06/27 08:47:34;;;;;;;6.63;2.67;;;;;;;18.06;64.99;99686.81;5045261;28;20288;-57
2022/06/27 08:50:07;;;;;;;10.33;3.20;;;;;;;18.08;65.61;99690.22;5045840;28;20300;-57
2022/06/27 08:52:39;;;;;;;28.30;17.50;;;;;;;18.08;65.74;99695.53;5045725;28;20292;-57
2022/06/27 08:55:11;;;;;;;24.57;11.03;;;;;;;17.86;65.41;99689.72;5045167;28;20332;-58
2022/06/27 08:57:42;;;;;;;49.93;31.13;;;;;;;17.79;66.02;99705.03;5045273;28;20287;-57
2022/06/27 09:00:17;;;;;;;41.23;19.53;;;;;;;17.10;66.21;99608.44;5044684;28;20479;-57
2022/06/27 09:02:48;;;;;;;20.83;10.40;;;;;;;17.58;66.75;99707.06;5045605;28;20295;-57
2022/06/27 09:05:26;;;;;;;11.27;4.63;;;;;;;17.46;66.87;99718.28;5044263;28;20915;-58
2022/06/27 09:07:59;;;;;;;14.63;4.73;;;;;;;17.41;67.45;99715.03;5045156;28;20349;-58
2022/06/27 09:10:32;;;;;;;11.00;2.87;;;;;;;16.92;67.78;99654.28;5045363;28;20291;-58
2022/06/27 09:13:08;;;;;;;11.13;2.40;;;;;;;17.29;68.06;99718.34;5045023;28;20344;-58
2022/06/27 09:15:53;;;;;;;5.80;3.10;;;;;;;17.17;68.03;99704.88;5044771;28;20295;-58
2022/06/27 09:18:25;;;;;;;10.63;3.40;;;;;;;17.18;68.36;99725.03;5043995;28;20299;-58
2022/06/27 09:20:58;;;;;;;5.77;2.50;;;;;;;17.17;68.90;99725.97;5043487;28;20312;-58
2022/06/27 09:23:43;;;;;;;5.87;2.57;;;;;;;17.13;69.19;99732.34;5045126;28;20284;-58
2022/06/27 09:26:16;;;;;;;7.53;2.70;;;;;;;16.97;69.31;99720.84;5044168;28;20437;-59
2022/06/27 09:28:55;;;;;;;7.97;2.60;;;;;;;16.91;69.89;99726.47;5044857;28;20361;-57
2022/06/27 09:31:39;;;;;;;11.73;2.97;;;;;;;16.88;69.99;99735.38;5044752;28;20463;-58
2022/06/27 09:34:14;;;;;;;9.43;2.70;;;;;;;16.77;70.38;99730.63;5044897;28;20346;-58
2022/06/27 09:36:47;;;;;;;13.20;2.67;;;;;;;16.39;70.34;99678.00;5044983;28;20279;-58
2022/06/27 09:39:23;;;;;;;12.10;2.63;;;;;;;16.57;70.34;99733.38;5044238;28;20310;-58
2022/06/27 09:41:56;;;;;;;7.00;2.70;;;;;;;16.30;70.80;99704.84;5044992;28;20657;-58
2022/06/27 09:44:32;;;;;;;13.07;2.50;;;;;;;16.44;71.07;99737.56;5044610;28;20358;-58
2022/06/27 09:47:12;;;;;;;9.20;2.40;;;;;;;16.42;71.23;99735.00;5044551;28;20281;-58
2022/06/27 09:49:43;;;;;;;5.05;2.30;;;;;;;16.41;71.62;99748.28;5043421;28;20295;-59
2022/06/27 09:52:15;;;;;;;5.57;2.20;;;;;;;16.38;71.67;99744.00;5044449;28;20073;-59
2022/06/27 09:54:47;;;;;;;11.80;2.67;;;;;;;16.33;71.53;99757.41;5044224;28;20291;-57
2022/06/27 09:57:19;;;;;;;6.53;2.20;;;;;;;16.27;71.65;99747.13;5043613;28;20459;-58
2022/06/27 09:59:53;;;;;;;5.03;2.23;;;;;;;16.24;71.92;99743.81;5042261;28;20307;-58
2022/06/27 10:02:25;;;;;;;5.23;2.53;;;;;;;16.23;72.08;99748.22;5044506;28;20304;-58
2022/06/27 10:04:56;;;;;;;8.60;2.43;;;;;;;16.18;72.11;99753.72;5044231;28;20287;-58
2022/06/27 10:07:28;;;;;;;5.37;2.60;;;;;;;16.17;72.64;99756.41;5043806;28;20724;-58
2022/06/27 10:09:58;;;;;;;5.50;3.10;;;;;;;16.19;72.62;99765.09;5043152;28;20633;-58
2022/06/27 10:12:31;;;;;;;8.53;2.97;;;;;;;16.22;72.44;99754.41;5043286;28;20766;-58
2022/06/27 10:15:22;;;;;;;7.27;3.07;;;;;;;16.23;72.65;99758.78;5044039;28;20300;-58
2022/06/27 10:17:59;;;;;;;6.87;2.90;;;;;;;16.11;72.04;99756.72;5044150;28;21457;-57
2022/06/27 10:20:38;;;;;;;8.20;3.27;;;;;;;16.15;72.28;99774.13;5042919;28;20300;-57
2022/06/27 10:23:37;;;;;;;10.43;3.08;;;;;;;16.14;72.39;99778.50;5042522;28;20338;-57
2022/06/27 10:26:08;;;;;;;14.03;3.63;;;;;;;16.19;72.23;99780.94;5043645;28;20067;-58
2022/06/27 10:28:40;;;;;;;9.20;2.90;;;;;;;16.20;72.28;99785.28;5042590;28;20345;-58
2022/06/27 10:31:18;;;;;;;11.00;3.17;;;;;;;16.18;71.96;99784.50;5043531;28;20358;-58
2022/06/27 10:33:52;;;;;;;7.53;3.43;;;;;;;16.16;71.63;99786.34;5043092;28;21126;-58
2022/06/27 10:36:23;;;;;;;7.57;3.37;;;;;;;16.16;71.61;99781.06;5042225;28;20519;-58
2022/06/27 10:38:59;;;;;;;7.17;3.00;;;;;;;16.14;71.83;99796.09;5042846;28;20306;-58
2022/06/27 10:41:41;;;;;;;5.80;2.90;;;;;;;16.08;71.68;99780.59;5042568;28;21037;-58
2022/06/27 10:44:33;;;;;;;14.43;8.73;;;;;;;16.08;72.00;99783.22;5043304;28;20347;-57
2022/06/27 10:47:34;;;;;;;56.08;27.55;;;;;;;16.14;73.17;99783.78;5042839;28;20295;-58
2022/06/27 10:50:16;;;;;;;36.87;25.80;;;;;;;16.10;74.48;99787.50;5041966;28;20060;-58
2022/06/27 10:52:48;;;;;;;16.93;9.90;;;;;;;16.08;74.23;99783.22;5043168;28;20487;-58
2022/06/27 10:55:25;;;;;;;13.67;7.47;;;;;;;15.65;73.94;99712.28;5043332;28;20301;-57
2022/06/27 10:57:57;;;;;;;15.50;8.20;;;;;;;16.16;74.39;99796.91;5043435;28;20351;-58
2022/06/27 11:00:42;;;;;;;27.30;20.57;;;;;;;16.14;74.48;99801.38;5042816;28;20321;-58
2022/06/27 11:03:22;;;;;;;12.70;6.40;;;;;;;16.13;74.26;99797.03;5042175;28;20664;-58
2022/06/27 11:06:03;;;;;;;6.63;3.63;;;;;;;16.10;74.45;99797.16;5042780;28;20291;-58
2022/06/27 11:08:36;;;;;;;13.83;7.37;;;;;;;16.09;74.28;99806.00;5042337;28;20295;-59
2022/06/27 11:11:07;;;;;;;8.80;4.73;;;;;;;16.03;74.15;99806.31;5042454;28;20296;-58
2022/06/27 11:13:41;;;;;;;13.27;5.70;;;;;;;16.04;74.23;99802.72;5043113;28;20608;-59
2022/06/27 11:16:15;;;;;;;10.43;5.20;;;;;;;15.93;74.32;99790.91;5043229;28;20280;-58
2022/06/27 11:18:51;;;;;;;14.47;8.93;;;;;;;15.95;74.74;99810.16;5043490;28;20290;-58
2022/06/27 11:21:25;;;;;;;13.40;9.83;;;;;;;15.69;75.36;99770.91;5042886;28;20279;-59
2022/06/27 11:23:58;;;;;;;19.17;15.83;;;;;;;15.87;75.64;99806.97;5043023;28;21084;-59
2022/06/27 11:26:30;;;;;;;16.90;11.83;;;;;;;15.84;75.98;99817.66;5042607;28;20355;-58
2022/06/27 11:32:03;;;;;;;9.50;4.17;;;;;;;15.78;76.45;99820.59;5042816;28;20299;-59
2022/06/27 11:34:41;;;;;;;17.63;7.90;;;;;;;15.76;76.06;99819.78;5042976;28;20368;-59
2022/06/27 11:37:16;;;;;;;14.10;8.27;;;;;;;15.73;76.27;99825.22;5042751;28;20709;-59
2022/06/27 11:40:00;;;;;;;14.67;7.03;;;;;;;15.59;76.28;99822.28;5043080;28;20327;-59
2022/06/27 11:42:32;;;;;;;16.50;7.00;;;;;;;15.50;76.34;99828.81;5042780;28;20300;-59
2022/06/27 11:45:07;;;;;;;10.20;3.97;;;;;;;15.49;76.04;99835.84;5042834;28;20272;-59
2022/06/27 11:47:40;;;;;;;10.03;2.83;;;;;;;15.33;75.58;99808.50;5043017;28;20371;-59
2022/06/27 11:50:13;;;;;;;4.77;2.40;;;;;;;15.48;75.84;99836.78;5042863;28;20291;-59
2022/06/27 11:52:46;;;;;;;12.73;2.43;;;;;;;15.24;75.83;99799.19;5042773;28;20284;-59
2022/06/27 11:55:19;;;;;;;7.67;2.60;;;;;;;15.50;75.82;99834.94;5042483;28;20343;-59
2022/06/27 11:57:50;;;;;;;10.27;2.10;;;;;;;15.53;75.49;99829.53;5042156;28;20287;-59
2022/06/27 12:00:23;;;;;;;28.63;13.10;;;;;;;15.25;75.24;99797.41;5041401;28;20307;-59
2022/06/27 12:03:02;;;;;;;21.57;10.13;;;;;;;15.41;75.54;99835.34;5042747;28;20307;-60